Terminal Aerodrome Forecast
Issued by NWS Twin Cities, MN

Home | Current Version | Previous Version | Graphics & Text | Print | Product List | Glossary On
Versions: 1 2 3 4 5 6 7 8 9 10 11 12 13 14 15 16 17 18 19 20 21 22 23 24 25 26
000
FTUS43 KMPX 230250 AAA
TAFMSP
TAF AMD
KMSP 230250Z 2303/2406 09009KT 1SM -SN BR SCT008 OVC015
     FM230400 10009KT 3/4SM -SN BR VV008
     FM230700 11004KT 2SM -SN BR OVC012
     FM231000 20006KT P6SM OVC015
     FM231400 25010KT P6SM SCT020
     FM231800 28010KT P6SM SCT025
     FM240500 28004KT P6SM SCT150=

USA.gov is the U.S. government's official web portal to all federal, state and local government web resources and services.